sensor_id;sensor_type;location;lat;lon;timestamp;P1;durP1;ratioP1;P2;durP2;ratioP2
17059;SDS011;8646;49.716;9.266;2023-06-10T00:02:28;10.73;;;7.33;;
17059;SDS011;8646;49.716;9.266;2023-06-10T00:05:32;9.43;;;7.03;;
17059;SDS011;8646;49.716;9.266;2023-06-10T00:08:36;9.90;;;7.40;;
17059;SDS011;8646;49.716;9.266;2023-06-10T00:11:39;9.03;;;7.17;;
17059;SDS011;8646;49.716;9.266;2023-06-10T00:14:43;10.07;;;7.20;;
17059;SDS011;8646;49.716;9.266;2023-06-10T00:17:46;11.00;;;7.73;;
17059;SDS011;8646;49.716;9.266;2023-06-10T00:20:50;10.63;;;7.17;;
17059;SDS011;8646;49.716;9.266;2023-06-10T00:23:54;9.67;;;7.50;;
17059;SDS011;8646;49.716;9.266;2023-06-10T00:26:57;10.40;;;7.33;;
17059;SDS011;8646;49.716;9.266;2023-06-10T00:30:02;10.47;;;7.67;;
17059;SDS011;8646;49.716;9.266;2023-06-10T00:33:08;10.33;;;7.07;;
17059;SDS011;8646;49.716;9.266;2023-06-10T00:36:11;9.73;;;6.87;;
17059;SDS011;8646;49.716;9.266;2023-06-10T00:39:14;9.77;;;7.37;;
17059;SDS011;8646;49.716;9.266;2023-06-10T00:42:17;9.53;;;7.00;;
17059;SDS011;8646;49.716;9.266;2023-06-10T00:45:22;10.03;;;7.33;;
17059;SDS011;8646;49.716;9.266;2023-06-10T00:48:25;10.43;;;7.63;;
17059;SDS011;8646;49.716;9.266;2023-06-10T00:51:28;10.57;;;7.70;;
17059;SDS011;8646;49.716;9.266;2023-06-10T00:54:31;13.67;;;7.63;;
17059;SDS011;8646;49.716;9.266;2023-06-10T00:57:34;11.67;;;7.70;;
17059;SDS011;8646;49.716;9.266;2023-06-10T01:00:38;10.17;;;7.17;;
17059;SDS011;8646;49.716;9.266;2023-06-10T01:03:41;9.73;;;7.20;;
17059;SDS011;8646;49.716;9.266;2023-06-10T01:10:09;11.17;;;8.10;;
17059;SDS011;8646;49.716;9.266;2023-06-10T01:13:18;10.57;;;7.27;;
17059;SDS011;8646;49.716;9.266;2023-06-10T01:16:26;10.63;;;6.97;;
17059;SDS011;8646;49.716;9.266;2023-06-10T01:19:30;10.37;;;7.33;;
17059;SDS011;8646;49.716;9.266;2023-06-10T01:22:36;10.50;;;7.80;;
17059;SDS011;8646;49.716;9.266;2023-06-10T01:25:39;11.23;;;7.33;;
17059;SDS011;8646;49.716;9.266;2023-06-10T01:28:47;10.27;;;7.33;;
17059;SDS011;8646;49.716;9.266;2023-06-10T01:31:55;9.80;;;6.93;;
17059;SDS011;8646;49.716;9.266;2023-06-10T01:35:06;10.17;;;7.40;;
17059;SDS011;8646;49.716;9.266;2023-06-10T01:38:13;9.47;;;7.33;;
17059;SDS011;8646;49.716;9.266;2023-06-10T01:41:18;10.57;;;7.87;;
17059;SDS011;8646;49.716;9.266;2023-06-10T01:44:22;10.37;;;7.03;;
17059;SDS011;8646;49.716;9.266;2023-06-10T01:47:25;11.37;;;7.60;;
17059;SDS011;8646;49.716;9.266;2023-06-10T01:50:28;11.70;;;6.90;;
17059;SDS011;8646;49.716;9.266;2023-06-10T01:53:33;9.47;;;7.40;;
17059;SDS011;8646;49.716;9.266;2023-06-10T01:56:35;10.80;;;7.70;;
17059;SDS011;8646;49.716;9.266;2023-06-10T01:59:38;11.93;;;8.20;;
17059;SDS011;8646;49.716;9.266;2023-06-10T02:02:41;11.93;;;7.43;;
17059;SDS011;8646;49.716;9.266;2023-06-10T02:05:44;10.20;;;7.50;;
17059;SDS011;8646;49.716;9.266;2023-06-10T02:08:48;10.53;;;7.00;;
17059;SDS011;8646;49.716;9.266;2023-06-10T02:11:51;10.47;;;7.50;;
17059;SDS011;8646;49.716;9.266;2023-06-10T02:14:54;11.87;;;7.03;;
17059;SDS011;8646;49.716;9.266;2023-06-10T02:17:57;10.40;;;7.70;;
17059;SDS011;8646;49.716;9.266;2023-06-10T02:20:59;11.10;;;8.07;;
17059;SDS011;8646;49.716;9.266;2023-06-10T02:24:04;12.53;;;8.23;;
17059;SDS011;8646;49.716;9.266;2023-06-10T02:27:08;9.90;;;7.37;;
17059;SDS011;8646;49.716;9.266;2023-06-10T02:30:11;9.53;;;7.40;;
17059;SDS011;8646;49.716;9.266;2023-06-10T02:33:15;12.73;;;7.80;;
17059;SDS011;8646;49.716;9.266;2023-06-10T02:36:19;9.97;;;7.97;;
17059;SDS011;8646;49.716;9.266;2023-06-10T02:39:24;10.17;;;7.47;;
17059;SDS011;8646;49.716;9.266;2023-06-10T02:42:27;12.40;;;7.63;;
17059;SDS011;8646;49.716;9.266;2023-06-10T02:45:29;11.73;;;8.07;;
17059;SDS011;8646;49.716;9.266;2023-06-10T02:48:38;12.30;;;7.87;;
17059;SDS011;8646;49.716;9.266;2023-06-10T02:51:43;10.63;;;7.60;;
17059;SDS011;8646;49.716;9.266;2023-06-10T02:54:48;9.20;;;7.23;;
17059;SDS011;8646;49.716;9.266;2023-06-10T02:57:50;13.27;;;8.10;;
17059;SDS011;8646;49.716;9.266;2023-06-10T03:00:53;15.80;;;7.93;;
17059;SDS011;8646;49.716;9.266;2023-06-10T03:03:56;10.60;;;7.30;;
17059;SDS011;8646;49.716;9.266;2023-06-10T03:07:00;11.97;;;7.00;;
17059;SDS011;8646;49.716;9.266;2023-06-10T03:10:07;12.50;;;7.87;;
17059;SDS011;8646;49.716;9.266;2023-06-10T03:13:10;10.83;;;7.67;;
17059;SDS011;8646;49.716;9.266;2023-06-10T03:16:13;10.47;;;7.60;;
17059;SDS011;8646;49.716;9.266;2023-06-10T03:19:15;10.77;;;7.60;;
17059;SDS011;8646;49.716;9.266;2023-06-10T03:22:18;9.33;;;7.17;;
17059;SDS011;8646;49.716;9.266;2023-06-10T03:25:23;12.83;;;7.83;;
17059;SDS011;8646;49.716;9.266;2023-06-10T03:28:27;9.83;;;7.20;;
17059;SDS011;8646;49.716;9.266;2023-06-10T03:31:30;9.97;;;7.20;;
17059;SDS011;8646;49.716;9.266;2023-06-10T03:34:33;9.90;;;7.43;;
17059;SDS011;8646;49.716;9.266;2023-06-10T03:37:36;11.83;;;7.27;;
17059;SDS011;8646;49.716;9.266;2023-06-10T03:40:40;11.20;;;7.70;;
17059;SDS011;8646;49.716;9.266;2023-06-10T03:43:42;10.17;;;7.53;;
17059;SDS011;8646;49.716;9.266;2023-06-10T03:46:46;12.87;;;8.03;;
17059;SDS011;8646;49.716;9.266;2023-06-10T03:49:48;11.63;;;7.70;;
17059;SDS011;8646;49.716;9.266;2023-06-10T03:52:51;10.97;;;7.97;;
17059;SDS011;8646;49.716;9.266;2023-06-10T03:55:55;11.03;;;8.10;;
17059;SDS011;8646;49.716;9.266;2023-06-10T03:58:58;12.50;;;7.53;;
17059;SDS011;8646;49.716;9.266;2023-06-10T04:02:01;12.50;;;7.77;;
17059;SDS011;8646;49.716;9.266;2023-06-10T04:05:06;12.73;;;8.23;;
17059;SDS011;8646;49.716;9.266;2023-06-10T04:08:10;12.13;;;7.20;;
17059;SDS011;8646;49.716;9.266;2023-06-10T04:11:14;12.30;;;7.63;;
17059;SDS011;8646;49.716;9.266;2023-06-10T04:14:17;11.10;;;7.53;;
17059;SDS011;8646;49.716;9.266;2023-06-10T04:17:19;10.73;;;7.30;;
17059;SDS011;8646;49.716;9.266;2023-06-10T04:20:22;11.07;;;8.40;;
17059;SDS011;8646;49.716;9.266;2023-06-10T04:23:25;13.03;;;8.30;;
17059;SDS011;8646;49.716;9.266;2023-06-10T04:26:29;11.90;;;7.60;;
17059;SDS011;8646;49.716;9.266;2023-06-10T04:29:32;12.37;;;7.60;;
17059;SDS011;8646;49.716;9.266;2023-06-10T04:32:35;9.90;;;7.33;;
17059;SDS011;8646;49.716;9.266;2023-06-10T04:35:38;9.53;;;7.37;;
17059;SDS011;8646;49.716;9.266;2023-06-10T04:38:41;12.40;;;7.93;;
17059;SDS011;8646;49.716;9.266;2023-06-10T04:41:45;12.43;;;7.53;;
17059;SDS011;8646;49.716;9.266;2023-06-10T04:44:48;10.53;;;7.67;;
17059;SDS011;8646;49.716;9.266;2023-06-10T04:47:51;11.07;;;7.87;;
17059;SDS011;8646;49.716;9.266;2023-06-10T04:50:54;11.37;;;7.77;;
17059;SDS011;8646;49.716;9.266;2023-06-10T04:53:57;11.57;;;8.00;;
17059;SDS011;8646;49.716;9.266;2023-06-10T04:57:06;11.53;;;8.13;;
17059;SDS011;8646;49.716;9.266;2023-06-10T05:00:10;12.33;;;8.00;;
17059;SDS011;8646;49.716;9.266;2023-06-10T05:03:13;10.83;;;8.03;;
17059;SDS011;8646;49.716;9.266;2023-06-10T05:06:16;9.90;;;7.27;;
17059;SDS011;8646;49.716;9.266;2023-06-10T05:09:19;9.60;;;7.87;;
17059;SDS011;8646;49.716;9.266;2023-06-10T05:12:23;13.23;;;8.00;;
17059;SDS011;8646;49.716;9.266;2023-06-10T05:15:26;12.93;;;7.70;;
17059;SDS011;8646;49.716;9.266;2023-06-10T05:18:29;10.83;;;7.40;;
17059;SDS011;8646;49.716;9.266;2023-06-10T05:21:32;10.63;;;7.90;;
17059;SDS011;8646;49.716;9.266;2023-06-10T05:24:35;12.13;;;8.23;;
17059;SDS011;8646;49.716;9.266;2023-06-10T05:27:39;11.20;;;7.70;;
17059;SDS011;8646;49.716;9.266;2023-06-10T05:30:43;11.33;;;7.63;;
17059;SDS011;8646;49.716;9.266;2023-06-10T05:33:46;9.97;;;7.77;;
17059;SDS011;8646;49.716;9.266;2023-06-10T05:36:49;10.20;;;7.63;;
17059;SDS011;8646;49.716;9.266;2023-06-10T05:39:51;11.23;;;8.33;;
17059;SDS011;8646;49.716;9.266;2023-06-10T05:42:56;10.43;;;7.97;;
17059;SDS011;8646;49.716;9.266;2023-06-10T05:45:58;10.60;;;7.73;;
17059;SDS011;8646;49.716;9.266;2023-06-10T05:49:01;9.67;;;7.47;;
17059;SDS011;8646;49.716;9.266;2023-06-10T05:52:04;10.17;;;7.47;;
17059;SDS011;8646;49.716;9.266;2023-06-10T05:55:08;11.20;;;8.00;;
17059;SDS011;8646;49.716;9.266;2023-06-10T05:58:14;9.33;;;7.13;;
17059;SDS011;8646;49.716;9.266;2023-06-10T06:01:16;13.13;;;7.63;;
17059;SDS011;8646;49.716;9.266;2023-06-10T06:04:19;9.93;;;7.33;;
17059;SDS011;8646;49.716;9.266;2023-06-10T06:07:22;9.47;;;7.10;;
17059;SDS011;8646;49.716;9.266;2023-06-10T06:10:25;9.37;;;6.87;;
17059;SDS011;8646;49.716;9.266;2023-06-10T06:13:29;10.37;;;7.47;;
17059;SDS011;8646;49.716;9.266;2023-06-10T06:16:32;9.40;;;7.07;;
17059;SDS011;8646;49.716;9.266;2023-06-10T06:19:35;8.60;;;6.97;;
17059;SDS011;8646;49.716;9.266;2023-06-10T06:22:37;10.67;;;6.90;;
17059;SDS011;8646;49.716;9.266;2023-06-10T06:25:40;9.13;;;6.50;;
17059;SDS011;8646;49.716;9.266;2023-06-10T06:28:44;9.37;;;6.67;;
17059;SDS011;8646;49.716;9.266;2023-06-10T06:31:50;9.07;;;6.40;;
17059;SDS011;8646;49.716;9.266;2023-06-10T06:34:53;10.50;;;6.97;;
17059;SDS011;8646;49.716;9.266;2023-06-10T06:37:56;8.30;;;6.33;;
17059;SDS011;8646;49.716;9.266;2023-06-10T06:41:00;10.73;;;6.57;;
17059;SDS011;8646;49.716;9.266;2023-06-10T06:44:08;8.50;;;6.23;;
17059;SDS011;8646;49.716;9.266;2023-06-10T06:47:11;8.93;;;6.30;;
17059;SDS011;8646;49.716;9.266;2023-06-10T06:50:13;8.27;;;6.33;;
17059;SDS011;8646;49.716;9.266;2023-06-10T06:53:17;8.67;;;6.50;;
17059;SDS011;8646;49.716;9.266;2023-06-10T06:56:20;10.90;;;6.63;;
17059;SDS011;8646;49.716;9.266;2023-06-10T06:59:24;9.07;;;6.53;;
17059;SDS011;8646;49.716;9.266;2023-06-10T07:02:27;9.47;;;6.47;;
17059;SDS011;8646;49.716;9.266;2023-06-10T07:05:30;7.57;;;5.97;;
17059;SDS011;8646;49.716;9.266;2023-06-10T07:08:34;10.07;;;6.20;;
17059;SDS011;8646;49.716;9.266;2023-06-10T07:11:36;8.70;;;6.30;;
17059;SDS011;8646;49.716;9.266;2023-06-10T07:14:40;8.73;;;6.30;;
17059;SDS011;8646;49.716;9.266;2023-06-10T07:17:43;8.70;;;5.93;;
17059;SDS011;8646;49.716;9.266;2023-06-10T07:20:46;9.93;;;6.17;;
17059;SDS011;8646;49.716;9.266;2023-06-10T07:23:49;9.30;;;6.70;;
17059;SDS011;8646;49.716;9.266;2023-06-10T07:26:55;8.00;;;6.30;;
17059;SDS011;8646;49.716;9.266;2023-06-10T07:29:59;9.00;;;6.20;;
17059;SDS011;8646;49.716;9.266;2023-06-10T07:33:02;10.20;;;6.40;;
17059;SDS011;8646;49.716;9.266;2023-06-10T07:36:08;7.97;;;5.90;;
17059;SDS011;8646;49.716;9.266;2023-06-10T07:39:10;10.33;;;6.47;;
17059;SDS011;8646;49.716;9.266;2023-06-10T07:42:13;9.77;;;6.20;;
17059;SDS011;8646;49.716;9.266;2023-06-10T07:45:17;8.13;;;6.30;;
17059;SDS011;8646;49.716;9.266;2023-06-10T07:48:20;7.90;;;6.20;;
17059;SDS011;8646;49.716;9.266;2023-06-10T07:51:23;11.77;;;6.87;;
17059;SDS011;8646;49.716;9.266;2023-06-10T07:54:25;7.23;;;6.10;;
17059;SDS011;8646;49.716;9.266;2023-06-10T07:57:30;7.63;;;6.00;;
17059;SDS011;8646;49.716;9.266;2023-06-10T08:00:37;8.10;;;6.03;;
17059;SDS011;8646;49.716;9.266;2023-06-10T08:03:40;8.53;;;6.00;;
17059;SDS011;8646;49.716;9.266;2023-06-10T08:06:43;7.30;;;6.03;;
17059;SDS011;8646;49.716;9.266;2023-06-10T08:09:46;12.97;;;6.13;;
17059;SDS011;8646;49.716;9.266;2023-06-10T08:12:49;8.73;;;6.13;;
17059;SDS011;8646;49.716;9.266;2023-06-10T08:15:54;7.60;;;5.47;;
17059;SDS011;8646;49.716;9.266;2023-06-10T08:18:57;9.47;;;6.03;;
17059;SDS011;8646;49.716;9.266;2023-06-10T08:21:59;8.53;;;5.90;;
17059;SDS011;8646;49.716;9.266;2023-06-10T08:25:03;7.63;;;6.10;;
17059;SDS011;8646;49.716;9.266;2023-06-10T08:28:07;8.40;;;6.00;;
17059;SDS011;8646;49.716;9.266;2023-06-10T08:31:11;7.40;;;5.37;;
17059;SDS011;8646;49.716;9.266;2023-06-10T08:34:14;7.83;;;5.67;;
17059;SDS011;8646;49.716;9.266;2023-06-10T08:37:17;8.87;;;6.13;;
17059;SDS011;8646;49.716;9.266;2023-06-10T08:40:19;8.33;;;6.03;;
17059;SDS011;8646;49.716;9.266;2023-06-10T08:43:24;11.07;;;6.20;;
17059;SDS011;8646;49.716;9.266;2023-06-10T08:46:36;7.50;;;5.60;;
17059;SDS011;8646;49.716;9.266;2023-06-10T08:49:41;7.73;;;5.47;;
17059;SDS011;8646;49.716;9.266;2023-06-10T08:52:46;9.53;;;6.00;;
17059;SDS011;8646;49.716;9.266;2023-06-10T08:55:52;6.50;;;5.20;;
17059;SDS011;8646;49.716;9.266;2023-06-10T08:58:55;5.83;;;4.80;;
17059;SDS011;8646;49.716;9.266;2023-06-10T09:02:01;6.57;;;5.00;;
17059;SDS011;8646;49.716;9.266;2023-06-10T09:05:07;6.40;;;4.30;;
17059;SDS011;8646;49.716;9.266;2023-06-10T09:08:11;5.20;;;4.20;;
17059;SDS011;8646;49.716;9.266;2023-06-10T09:11:14;5.80;;;4.10;;
17059;SDS011;8646;49.716;9.266;2023-06-10T09:14:16;6.80;;;4.73;;
17059;SDS011;8646;49.716;9.266;2023-06-10T09:17:21;5.57;;;4.47;;
17059;SDS011;8646;49.716;9.266;2023-06-10T09:20:24;5.33;;;4.07;;
17059;SDS011;8646;49.716;9.266;2023-06-10T09:23:27;6.90;;;3.80;;
17059;SDS011;8646;49.716;9.266;2023-06-10T09:26:30;5.63;;;4.50;;
17059;SDS011;8646;49.716;9.266;2023-06-10T09:29:43;5.67;;;4.50;;
17059;SDS011;8646;49.716;9.266;2023-06-10T09:32:49;7.63;;;4.60;;
17059;SDS011;8646;49.716;9.266;2023-06-10T09:35:52;6.00;;;4.60;;
17059;SDS011;8646;49.716;9.266;2023-06-10T09:38:57;6.70;;;4.57;;
17059;SDS011;8646;49.716;9.266;2023-06-10T09:41:59;8.73;;;4.30;;
17059;SDS011;8646;49.716;9.266;2023-06-10T09:45:02;6.67;;;4.90;;
17059;SDS011;8646;49.716;9.266;2023-06-10T09:48:07;6.17;;;4.20;;
17059;SDS011;8646;49.716;9.266;2023-06-10T09:51:11;5.80;;;4.47;;
17059;SDS011;8646;49.716;9.266;2023-06-10T09:54:15;5.57;;;4.73;;
17059;SDS011;8646;49.716;9.266;2023-06-10T09:57:19;5.87;;;4.83;;
17059;SDS011;8646;49.716;9.266;2023-06-10T10:00:23;5.63;;;4.47;;
17059;SDS011;8646;49.716;9.266;2023-06-10T10:03:28;7.10;;;4.63;;
17059;SDS011;8646;49.716;9.266;2023-06-10T10:06:31;6.20;;;4.33;;
17059;SDS011;8646;49.716;9.266;2023-06-10T10:09:35;9.23;;;4.07;;
17059;SDS011;8646;49.716;9.266;2023-06-10T10:12:38;5.53;;;4.50;;
17059;SDS011;8646;49.716;9.266;2023-06-10T10:15:41;5.67;;;4.13;;
17059;SDS011;8646;49.716;9.266;2023-06-10T10:18:48;5.33;;;3.93;;
17059;SDS011;8646;49.716;9.266;2023-06-10T10:22:00;5.47;;;4.20;;
17059;SDS011;8646;49.716;9.266;2023-06-10T10:25:08;7.47;;;4.37;;
17059;SDS011;8646;49.716;9.266;2023-06-10T10:28:14;6.10;;;4.40;;
17059;SDS011;8646;49.716;9.266;2023-06-10T10:31:20;4.77;;;3.97;;
17059;SDS011;8646;49.716;9.266;2023-06-10T10:34:27;4.80;;;3.33;;
17059;SDS011;8646;49.716;9.266;2023-06-10T10:37:36;4.67;;;3.80;;
17059;SDS011;8646;49.716;9.266;2023-06-10T10:40:39;5.70;;;3.55;;
17059;SDS011;8646;49.716;9.266;2023-06-10T10:43:42;5.80;;;3.70;;
17059;SDS011;8646;49.716;9.266;2023-06-10T10:46:48;3.83;;;2.95;;
17059;SDS011;8646;49.716;9.266;2023-06-10T10:49:54;5.50;;;4.00;;
17059;SDS011;8646;49.716;9.266;2023-06-10T10:53:01;4.03;;;3.20;;
17059;SDS011;8646;49.716;9.266;2023-06-10T10:56:05;3.67;;;2.95;;
17059;SDS011;8646;49.716;9.266;2023-06-10T10:59:09;3.88;;;3.10;;
17059;SDS011;8646;49.716;9.266;2023-06-10T11:02:15;5.63;;;3.80;;
17059;SDS011;8646;49.716;9.266;2023-06-10T11:05:30;6.20;;;3.80;;
17059;SDS011;8646;49.716;9.266;2023-06-10T11:08:46;3.63;;;3.20;;
17059;SDS011;8646;49.716;9.266;2023-06-10T11:11:50;6.43;;;3.88;;
17059;SDS011;8646;49.716;9.266;2023-06-10T11:14:53;3.95;;;3.28;;
17059;SDS011;8646;49.716;9.266;2023-06-10T11:18:10;4.05;;;3.33;;
17059;SDS011;8646;49.716;9.266;2023-06-10T11:21:16;4.80;;;3.13;;
17059;SDS011;8646;49.716;9.266;2023-06-10T11:24:19;5.38;;;3.60;;
17059;SDS011;8646;49.716;9.266;2023-06-10T11:27:22;3.17;;;2.72;;
17059;SDS011;8646;49.716;9.266;2023-06-10T11:30:29;4.47;;;3.50;;
17059;SDS011;8646;49.716;9.266;2023-06-10T11:33:37;4.40;;;3.17;;
17059;SDS011;8646;49.716;9.266;2023-06-10T11:36:42;4.03;;;3.33;;
17059;SDS011;8646;49.716;9.266;2023-06-10T11:39:47;3.47;;;2.97;;
17059;SDS011;8646;49.716;9.266;2023-06-10T11:42:50;5.15;;;3.33;;
17059;SDS011;8646;49.716;9.266;2023-06-10T11:45:53;6.05;;;3.05;;
17059;SDS011;8646;49.716;9.266;2023-06-10T11:48:58;4.53;;;2.95;;
17059;SDS011;8646;49.716;9.266;2023-06-10T11:52:05;4.20;;;3.45;;
17059;SDS011;8646;49.716;9.266;2023-06-10T11:55:09;5.90;;;3.20;;
17059;SDS011;8646;49.716;9.266;2023-06-10T11:58:12;4.72;;;3.03;;
17059;SDS011;8646;49.716;9.266;2023-06-10T12:01:19;3.95;;;3.17;;
17059;SDS011;8646;49.716;9.266;2023-06-10T12:04:29;6.40;;;3.13;;
17059;SDS011;8646;49.716;9.266;2023-06-10T12:07:34;4.20;;;2.92;;
17059;SDS011;8646;49.716;9.266;2023-06-10T12:10:40;5.82;;;3.40;;
17059;SDS011;8646;49.716;9.266;2023-06-10T12:13:45;4.63;;;3.25;;
17059;SDS011;8646;49.716;9.266;2023-06-10T12:16:50;6.22;;;3.50;;
17059;SDS011;8646;49.716;9.266;2023-06-10T12:19:53;4.03;;;3.28;;
17059;SDS011;8646;49.716;9.266;2023-06-10T12:22:57;5.32;;;3.20;;
17059;SDS011;8646;49.716;9.266;2023-06-10T12:26:00;4.10;;;3.20;;
17059;SDS011;8646;49.716;9.266;2023-06-10T12:29:12;4.63;;;3.28;;
17059;SDS011;8646;49.716;9.266;2023-06-10T12:32:17;4.15;;;3.20;;
17059;SDS011;8646;49.716;9.266;2023-06-10T12:35:22;7.80;;;5.47;;
17059;SDS011;8646;49.716;9.266;2023-06-10T12:38:28;4.38;;;3.80;;
17059;SDS011;8646;49.716;9.266;2023-06-10T12:41:30;4.65;;;4.13;;
17059;SDS011;8646;49.716;9.266;2023-06-10T12:44:35;6.32;;;4.03;;
17059;SDS011;8646;49.716;9.266;2023-06-10T12:47:41;4.75;;;3.50;;
17059;SDS011;8646;49.716;9.266;2023-06-10T12:50:44;3.70;;;3.00;;
17059;SDS011;8646;49.716;9.266;2023-06-10T12:53:54;3.13;;;2.70;;
17059;SDS011;8646;49.716;9.266;2023-06-10T12:56:56;3.42;;;2.42;;
17059;SDS011;8646;49.716;9.266;2023-06-10T12:59:59;4.75;;;3.28;;
17059;SDS011;8646;49.716;9.266;2023-06-10T13:03:06;4.38;;;3.38;;
17059;SDS011;8646;49.716;9.266;2023-06-10T13:06:10;3.97;;;3.20;;
17059;SDS011;8646;49.716;9.266;2023-06-10T13:09:15;3.88;;;3.22;;
17059;SDS011;8646;49.716;9.266;2023-06-10T13:12:18;4.35;;;3.30;;
17059;SDS011;8646;49.716;9.266;2023-06-10T13:15:31;4.03;;;3.17;;
17059;SDS011;8646;49.716;9.266;2023-06-10T13:18:40;4.88;;;3.63;;
17059;SDS011;8646;49.716;9.266;2023-06-10T13:21:44;3.63;;;3.33;;
17059;SDS011;8646;49.716;9.266;2023-06-10T13:24:48;3.92;;;2.88;;
17059;SDS011;8646;49.716;9.266;2023-06-10T13:27:51;4.05;;;2.92;;
17059;SDS011;8646;49.716;9.266;2023-06-10T13:30:54;3.88;;;3.20;;
17059;SDS011;8646;49.716;9.266;2023-06-10T13:33:56;3.88;;;3.05;;
17059;SDS011;8646;49.716;9.266;2023-06-10T13:36:59;4.53;;;3.20;;
17059;SDS011;8646;49.716;9.266;2023-06-10T13:40:04;4.55;;;3.20;;
17059;SDS011;8646;49.716;9.266;2023-06-10T13:43:09;4.47;;;3.00;;
17059;SDS011;8646;49.716;9.266;2023-06-10T13:46:12;3.90;;;2.92;;
17059;SDS011;8646;49.716;9.266;2023-06-10T13:49:15;5.65;;;3.47;;
17059;SDS011;8646;49.716;9.266;2023-06-10T13:52:18;3.47;;;3.08;;
17059;SDS011;8646;49.716;9.266;2023-06-10T13:55:22;3.92;;;3.20;;
17059;SDS011;8646;49.716;9.266;2023-06-10T13:58:26;3.60;;;3.05;;
17059;SDS011;8646;49.716;9.266;2023-06-10T14:01:28;5.18;;;3.60;;
17059;SDS011;8646;49.716;9.266;2023-06-10T14:04:32;3.92;;;3.35;;
17059;SDS011;8646;49.716;9.266;2023-06-10T14:07:35;5.47;;;3.42;;
17059;SDS011;8646;49.716;9.266;2023-06-10T14:10:39;3.90;;;3.15;;
17059;SDS011;8646;49.716;9.266;2023-06-10T14:13:42;3.83;;;3.38;;
17059;SDS011;8646;49.716;9.266;2023-06-10T14:16:45;6.78;;;3.45;;
17059;SDS011;8646;49.716;9.266;2023-06-10T14:19:48;5.60;;;3.45;;
17059;SDS011;8646;49.716;9.266;2023-06-10T14:22:51;4.47;;;3.33;;
17059;SDS011;8646;49.716;9.266;2023-06-10T14:25:56;3.38;;;3.08;;
17059;SDS011;8646;49.716;9.266;2023-06-10T14:29:00;3.90;;;3.50;;
17059;SDS011;8646;49.716;9.266;2023-06-10T14:32:04;4.07;;;3.13;;
17059;SDS011;8646;49.716;9.266;2023-06-10T14:35:10;3.35;;;3.05;;
17059;SDS011;8646;49.716;9.266;2023-06-10T14:38:13;3.65;;;3.10;;
17059;SDS011;8646;49.716;9.266;2023-06-10T14:41:17;3.40;;;3.10;;
17059;SDS011;8646;49.716;9.266;2023-06-10T14:44:20;6.88;;;3.40;;
17059;SDS011;8646;49.716;9.266;2023-06-10T14:47:23;7.07;;;4.03;;
17059;SDS011;8646;49.716;9.266;2023-06-10T14:50:26;9.50;;;3.47;;
17059;SDS011;8646;49.716;9.266;2023-06-10T14:53:29;4.72;;;3.80;;
17059;SDS011;8646;49.716;9.266;2023-06-10T14:56:33;3.92;;;3.20;;
17059;SDS011;8646;49.716;9.266;2023-06-10T14:59:36;4.82;;;3.30;;
17059;SDS011;8646;49.716;9.266;2023-06-10T15:02:38;4.95;;;3.40;;
17059;SDS011;8646;49.716;9.266;2023-06-10T15:05:41;4.18;;;3.15;;
17059;SDS011;8646;49.716;9.266;2023-06-10T15:08:44;3.72;;;3.10;;
17059;SDS011;8646;49.716;9.266;2023-06-10T15:11:50;5.93;;;3.33;;
17059;SDS011;8646;49.716;9.266;2023-06-10T15:14:52;5.65;;;3.42;;
17059;SDS011;8646;49.716;9.266;2023-06-10T15:17:55;3.80;;;3.40;;
17059;SDS011;8646;49.716;9.266;2023-06-10T15:20:58;5.47;;;3.13;;
17059;SDS011;8646;49.716;9.266;2023-06-10T15:24:02;4.28;;;3.45;;
17059;SDS011;8646;49.716;9.266;2023-06-10T15:27:06;5.07;;;3.25;;
17059;SDS011;8646;49.716;9.266;2023-06-10T15:30:09;4.85;;;3.42;;
17059;SDS011;8646;49.716;9.266;2023-06-10T15:33:12;6.88;;;4.65;;
17059;SDS011;8646;49.716;9.266;2023-06-10T15:36:15;4.10;;;3.35;;
17059;SDS011;8646;49.716;9.266;2023-06-10T15:39:17;3.40;;;3.10;;
17059;SDS011;8646;49.716;9.266;2023-06-10T15:42:22;3.55;;;3.10;;
17059;SDS011;8646;49.716;9.266;2023-06-10T15:45:25;4.25;;;3.60;;
17059;SDS011;8646;49.716;9.266;2023-06-10T15:48:28;4.00;;;3.35;;
17059;SDS011;8646;49.716;9.266;2023-06-10T15:51:30;5.32;;;3.88;;
17059;SDS011;8646;49.716;9.266;2023-06-10T15:54:33;4.28;;;3.40;;
17059;SDS011;8646;49.716;9.266;2023-06-10T15:57:37;5.85;;;3.60;;
17059;SDS011;8646;49.716;9.266;2023-06-10T16:00:40;4.68;;;3.45;;
17059;SDS011;8646;49.716;9.266;2023-06-10T16:03:44;5.78;;;4.50;;
17059;SDS011;8646;49.716;9.266;2023-06-10T16:06:47;4.72;;;3.63;;
17059;SDS011;8646;49.716;9.266;2023-06-10T16:09:50;3.92;;;3.53;;
17059;SDS011;8646;49.716;9.266;2023-06-10T16:12:54;18.67;;;13.38;;
17059;SDS011;8646;49.716;9.266;2023-06-10T16:15:57;4.53;;;3.45;;
17059;SDS011;8646;49.716;9.266;2023-06-10T16:19:00;5.18;;;3.08;;
17059;SDS011;8646;49.716;9.266;2023-06-10T16:22:03;4.63;;;2.90;;
17059;SDS011;8646;49.716;9.266;2023-06-10T16:25:07;3.50;;;3.08;;
17059;SDS011;8646;49.716;9.266;2023-06-10T16:28:12;3.53;;;3.22;;
17059;SDS011;8646;49.716;9.266;2023-06-10T16:31:14;3.35;;;2.97;;
17059;SDS011;8646;49.716;9.266;2023-06-10T16:34:17;7.13;;;3.17;;
17059;SDS011;8646;49.716;9.266;2023-06-10T16:37:20;5.93;;;3.80;;
17059;SDS011;8646;49.716;9.266;2023-06-10T16:40:23;6.28;;;4.10;;
17059;SDS011;8646;49.716;9.266;2023-06-10T16:43:28;8.00;;;5.55;;
17059;SDS011;8646;49.716;9.266;2023-06-10T16:46:30;4.60;;;4.03;;
17059;SDS011;8646;49.716;9.266;2023-06-10T16:49:33;5.07;;;3.78;;
17059;SDS011;8646;49.716;9.266;2023-06-10T16:52:37;6.43;;;4.37;;
17059;SDS011;8646;49.716;9.266;2023-06-10T16:55:40;5.70;;;3.78;;
17059;SDS011;8646;49.716;9.266;2023-06-10T16:58:44;6.15;;;4.47;;
17059;SDS011;8646;49.716;9.266;2023-06-10T17:01:47;5.38;;;4.15;;
17059;SDS011;8646;49.716;9.266;2023-06-10T17:04:50;5.53;;;4.30;;
17059;SDS011;8646;49.716;9.266;2023-06-10T17:07:53;6.45;;;4.63;;
17059;SDS011;8646;49.716;9.266;2023-06-10T17:10:56;7.47;;;5.10;;
17059;SDS011;8646;49.716;9.266;2023-06-10T17:14:00;5.78;;;4.38;;
17059;SDS011;8646;49.716;9.266;2023-06-10T17:17:03;4.78;;;3.90;;
17059;SDS011;8646;49.716;9.266;2023-06-10T17:20:07;5.28;;;4.47;;
17059;SDS011;8646;49.716;9.266;2023-06-10T17:23:10;4.97;;;4.20;;
17059;SDS011;8646;49.716;9.266;2023-06-10T17:26:13;5.80;;;3.80;;
17059;SDS011;8646;49.716;9.266;2023-06-10T17:29:17;4.68;;;4.05;;
17059;SDS011;8646;49.716;9.266;2023-06-10T17:32:20;4.28;;;3.85;;
17059;SDS011;8646;49.716;9.266;2023-06-10T17:35:23;4.45;;;3.83;;
17059;SDS011;8646;49.716;9.266;2023-06-10T17:38:25;4.40;;;4.00;;
17059;SDS011;8646;49.716;9.266;2023-06-10T17:41:28;4.78;;;4.00;;
17059;SDS011;8646;49.716;9.266;2023-06-10T17:44:32;5.35;;;3.92;;
17059;SDS011;8646;49.716;9.266;2023-06-10T17:47:35;6.68;;;4.10;;
17059;SDS011;8646;49.716;9.266;2023-06-10T17:50:38;4.97;;;4.10;;
17059;SDS011;8646;49.716;9.266;2023-06-10T17:53:41;4.25;;;3.85;;
17059;SDS011;8646;49.716;9.266;2023-06-10T17:56:44;6.00;;;4.50;;
17059;SDS011;8646;49.716;9.266;2023-06-10T17:59:48;9.20;;;4.38;;
17059;SDS011;8646;49.716;9.266;2023-06-10T18:02:50;6.57;;;3.85;;
17059;SDS011;8646;49.716;9.266;2023-06-10T18:05:54;5.57;;;4.20;;
17059;SDS011;8646;49.716;9.266;2023-06-10T18:08:58;5.43;;;4.15;;
17059;SDS011;8646;49.716;9.266;2023-06-10T18:12:02;5.55;;;4.45;;
17059;SDS011;8646;49.716;9.266;2023-06-10T18:15:07;5.82;;;4.28;;
17059;SDS011;8646;49.716;9.266;2023-06-10T18:18:11;8.70;;;5.28;;
17059;SDS011;8646;49.716;9.266;2023-06-10T18:21:14;5.35;;;4.43;;
17059;SDS011;8646;49.716;9.266;2023-06-10T18:24:16;7.47;;;5.07;;
17059;SDS011;8646;49.716;9.266;2023-06-10T18:27:19;6.97;;;5.25;;
17059;SDS011;8646;49.716;9.266;2023-06-10T18:30:23;6.75;;;5.13;;
17059;SDS011;8646;49.716;9.266;2023-06-10T18:33:26;7.70;;;5.38;;
17059;SDS011;8646;49.716;9.266;2023-06-10T18:36:31;8.55;;;5.60;;
17059;SDS011;8646;49.716;9.266;2023-06-10T18:39:34;7.63;;;5.13;;
17059;SDS011;8646;49.716;9.266;2023-06-10T18:42:37;6.93;;;5.73;;
17059;SDS011;8646;49.716;9.266;2023-06-10T18:45:41;7.80;;;5.10;;